sensor_id;sensor_type;location;lat;lon;timestamp;temperature;humidity
9939;DHT22;5008;50.656;7.188;2023-02-28T05:00:43;1.10;99.90
9939;DHT22;5008;50.656;7.188;2023-02-28T05:03:10;1.10;99.90
9939;DHT22;5008;50.656;7.188;2023-02-28T05:05:37;1.10;99.90
9939;DHT22;5008;50.656;7.188;2023-02-28T05:08:04;1.00;99.90
9939;DHT22;5008;50.656;7.188;2023-02-28T05:10:31;1.00;99.90
9939;DHT22;5008;50.656;7.188;2023-02-28T05:12:58;1.00;99.90
9939;DHT22;5008;50.656;7.188;2023-02-28T05:15:25;1.00;99.90
9939;DHT22;5008;50.656;7.188;2023-02-28T05:17:53;1.10;99.90
9939;DHT22;5008;50.656;7.188;2023-02-28T05:20:20;1.10;99.90
9939;DHT22;5008;50.656;7.188;2023-02-28T05:22:47;1.10;99.90
9939;DHT22;5008;50.656;7.188;2023-02-28T05:25:17;1.10;99.90
9939;DHT22;5008;50.656;7.188;2023-02-28T05:27:44;1.20;99.90
9939;DHT22;5008;50.656;7.188;2023-02-28T05:30:20;1.10;99.90
9939;DHT22;5008;50.656;7.188;2023-02-28T05:32:50;1.10;99.90
9939;DHT22;5008;50.656;7.188;2023-02-28T05:35:18;1.00;99.90
9939;DHT22;5008;50.656;7.188;2023-02-28T05:37:45;1.00;99.90
9939;DHT22;5008;50.656;7.188;2023-02-28T05:40:12;1.00;99.90
9939;DHT22;5008;50.656;7.188;2023-02-28T05:42:40;0.90;99.90
9939;DHT22;5008;50.656;7.188;2023-02-28T05:45:08;0.90;99.90
9939;DHT22;5008;50.656;7.188;2023-02-28T05:47:35;0.90;99.90
9939;DHT22;5008;50.656;7.188;2023-02-28T05:50:03;1.00;99.90
9939;DHT22;5008;50.656;7.188;2023-02-28T05:52:31;1.00;99.90
9939;DHT22;5008;50.656;7.188;2023-02-28T05:57:59;0.90;99.90
9939;DHT22;5008;50.656;7.188;2023-02-28T06:00:25;0.90;99.90
9939;DHT22;5008;50.656;7.188;2023-02-28T06:02:53;0.90;99.90
9939;DHT22;5008;50.656;7.188;2023-02-28T06:05:22;0.80;99.90
9939;DHT22;5008;50.656;7.188;2023-02-28T06:11:12;0.80;99.90
9939;DHT22;5008;50.656;7.188;2023-02-28T06:13:39;0.70;99.90
9939;DHT22;5008;50.656;7.188;2023-02-28T06:16:07;0.70;99.90
9939;DHT22;5008;50.656;7.188;2023-02-28T06:18:34;0.70;99.90
9939;DHT22;5008;50.656;7.188;2023-02-28T06:21:02;0.70;99.90
9939;DHT22;5008;50.656;7.188;2023-02-28T06:23:29;0.70;99.90
9939;DHT22;5008;50.656;7.188;2023-02-28T06:25:56;0.60;99.90
9939;DHT22;5008;50.656;7.188;2023-02-28T06:55:20;0.70;99.90
9939;DHT22;5008;50.656;7.188;2023-02-28T06:57:50;0.70;99.90
9939;DHT22;5008;50.656;7.188;2023-02-28T07:00:17;0.70;99.90
9939;DHT22;5008;50.656;7.188;2023-02-28T07:02:44;0.70;99.90
9939;DHT22;5008;50.656;7.188;2023-02-28T07:05:12;0.70;99.90
9939;DHT22;5008;50.656;7.188;2023-02-28T07:07:39;0.80;99.90
9939;DHT22;5008;50.656;7.188;2023-02-28T07:10:32;0.80;99.90
9939;DHT22;5008;50.656;7.188;2023-02-28T07:13:03;0.90;99.90
9939;DHT22;5008;50.656;7.188;2023-02-28T07:15:32;0.90;99.90
9939;DHT22;5008;50.656;7.188;2023-02-28T07:17:59;0.90;99.90
9939;DHT22;5008;50.656;7.188;2023-02-28T07:20:26;0.90;99.90
9939;DHT22;5008;50.656;7.188;2023-02-28T07:22:53;1.00;99.90
9939;DHT22;5008;50.656;7.188;2023-02-28T07:25:22;1.00;99.90
9939;DHT22;5008;50.656;7.188;2023-02-28T07:27:52;1.00;99.90
9939;DHT22;5008;50.656;7.188;2023-02-28T07:30:20;1.10;99.90
9939;DHT22;5008;50.656;7.188;2023-02-28T07:32:47;1.20;99.90
9939;DHT22;5008;50.656;7.188;2023-02-28T07:35:17;1.30;99.90
9939;DHT22;5008;50.656;7.188;2023-02-28T07:37:44;1.30;99.90
9939;DHT22;5008;50.656;7.188;2023-02-28T07:40:15;1.30;99.90
9939;DHT22;5008;50.656;7.188;2023-02-28T07:42:43;7.40;99.90
9939;DHT22;5008;50.656;7.188;2023-02-28T07:45:12;9.40;99.90
9939;DHT22;5008;50.656;7.188;2023-02-28T07:47:43;9.60;99.90
9939;DHT22;5008;50.656;7.188;2023-02-28T07:50:13;7.90;95.60
9939;DHT22;5008;50.656;7.188;2023-02-28T07:52:40;6.10;96.60
9939;DHT22;5008;50.656;7.188;2023-02-28T07:55:09;4.70;97.40
9939;DHT22;5008;50.656;7.188;2023-02-28T07:57:36;4.10;98.50
9939;DHT22;5008;50.656;7.188;2023-02-28T08:00:03;3.50;99.20
9939;DHT22;5008;50.656;7.188;2023-02-28T08:02:39;3.10;99.80
9939;DHT22;5008;50.656;7.188;2023-02-28T08:05:07;2.90;99.90
9939;DHT22;5008;50.656;7.188;2023-02-28T08:07:34;2.80;99.70
9939;DHT22;5008;50.656;7.188;2023-02-28T08:10:01;5.30;99.90
9939;DHT22;5008;50.656;7.188;2023-02-28T08:12:27;9.20;99.90
9939;DHT22;5008;50.656;7.188;2023-02-28T08:14:54;9.30;99.60
9939;DHT22;5008;50.656;7.188;2023-02-28T08:17:23;9.40;99.20
9939;DHT22;5008;50.656;7.188;2023-02-28T08:19:51;7.50;94.80
9939;DHT22;5008;50.656;7.188;2023-02-28T08:22:18;5.90;95.70
9939;DHT22;5008;50.656;7.188;2023-02-28T08:24:47;5.00;96.10
9939;DHT22;5008;50.656;7.188;2023-02-28T08:27:14;4.50;97.10
9939;DHT22;5008;50.656;7.188;2023-02-28T08:29:41;4.10;97.50
9939;DHT22;5008;50.656;7.188;2023-02-28T08:32:08;3.80;97.70
9939;DHT22;5008;50.656;7.188;2023-02-28T08:34:38;3.60;98.10
9939;DHT22;5008;50.656;7.188;2023-02-28T08:37:07;4.50;99.90
9939;DHT22;5008;50.656;7.188;2023-02-28T08:39:34;9.00;99.90
9939;DHT22;5008;50.656;7.188;2023-02-28T08:42:02;9.60;99.40
9939;DHT22;5008;50.656;7.188;2023-02-28T08:44:29;9.70;98.60
9939;DHT22;5008;50.656;7.188;2023-02-28T08:46:56;9.70;98.10
9939;DHT22;5008;50.656;7.188;2023-02-28T08:49:22;9.60;97.50
9939;DHT22;5008;50.656;7.188;2023-02-28T08:51:49;9.60;97.20
9939;DHT22;5008;50.656;7.188;2023-02-28T08:54:17;9.60;96.90
9939;DHT22;5008;50.656;7.188;2023-02-28T08:56:45;9.60;96.60
9939;DHT22;5008;50.656;7.188;2023-02-28T08:59:12;9.50;96.30
9939;DHT22;5008;50.656;7.188;2023-02-28T09:01:40;9.40;96.10
9939;DHT22;5008;50.656;7.188;2023-02-28T09:04:09;9.50;96.20
9939;DHT22;5008;50.656;7.188;2023-02-28T09:06:37;9.50;96.00
9939;DHT22;5008;50.656;7.188;2023-02-28T09:09:06;9.50;95.60
9939;DHT22;5008;50.656;7.188;2023-02-28T09:11:34;9.40;95.40
9939;DHT22;5008;50.656;7.188;2023-02-28T09:14:02;9.40;95.20
9939;DHT22;5008;50.656;7.188;2023-02-28T09:16:30;9.40;95.00
9939;DHT22;5008;50.656;7.188;2023-02-28T09:18:57;9.40;95.10
9939;DHT22;5008;50.656;7.188;2023-02-28T09:21:25;9.40;94.80
9939;DHT22;5008;50.656;7.188;2023-02-28T09:23:52;9.30;94.60
9939;DHT22;5008;50.656;7.188;2023-02-28T09:26:26;9.40;94.30
9939;DHT22;5008;50.656;7.188;2023-02-28T09:28:54;9.50;94.20
9939;DHT22;5008;50.656;7.188;2023-02-28T09:31:23;9.50;94.10
9939;DHT22;5008;50.656;7.188;2023-02-28T09:33:52;9.50;94.10
9939;DHT22;5008;50.656;7.188;2023-02-28T09:36:22;9.30;93.80
9939;DHT22;5008;50.656;7.188;2023-02-28T09:38:50;9.30;93.80
9939;DHT22;5008;50.656;7.188;2023-02-28T09:41:20;9.00;91.50
9939;DHT22;5008;50.656;7.188;2023-02-28T09:43:50;9.00;93.20
9939;DHT22;5008;50.656;7.188;2023-02-28T09:46:28;9.20;93.00
9939;DHT22;5008;50.656;7.188;2023-02-28T09:48:57;9.00;92.60
9939;DHT22;5008;50.656;7.188;2023-02-28T09:51:36;8.20;91.10
9939;DHT22;5008;50.656;7.188;2023-02-28T09:54:05;7.90;94.00
9939;DHT22;5008;50.656;7.188;2023-02-28T09:56:37;8.30;94.60
9939;DHT22;5008;50.656;7.188;2023-02-28T09:59:13;8.50;93.40
9939;DHT22;5008;50.656;7.188;2023-02-28T10:01:47;9.30;94.20
9939;DHT22;5008;50.656;7.188;2023-02-28T10:04:22;9.30;92.10
9939;DHT22;5008;50.656;7.188;2023-02-28T10:06:55;8.00;89.10
9939;DHT22;5008;50.656;7.188;2023-02-28T10:09:52;7.10;90.00
9939;DHT22;5008;50.656;7.188;2023-02-28T10:12:20;6.30;90.00
9939;DHT22;5008;50.656;7.188;2023-02-28T10:14:50;6.00;91.10
9939;DHT22;5008;50.656;7.188;2023-02-28T10:20:42;6.10;96.00
9939;DHT22;5008;50.656;7.188;2023-02-28T10:23:14;6.60;91.20
9939;DHT22;5008;50.656;7.188;2023-02-28T10:25:45;6.40;91.50
9939;DHT22;5008;50.656;7.188;2023-02-28T10:28:15;6.20;91.30
9939;DHT22;5008;50.656;7.188;2023-02-28T10:30:46;6.70;96.50
9939;DHT22;5008;50.656;7.188;2023-02-28T10:33:22;8.00;96.10
9939;DHT22;5008;50.656;7.188;2023-02-28T10:35:52;8.60;91.70
9939;DHT22;5008;50.656;7.188;2023-02-28T10:38:21;8.20;91.30
9939;DHT22;5008;50.656;7.188;2023-02-28T10:40:49;7.80;90.80
9939;DHT22;5008;50.656;7.188;2023-02-28T10:43:21;8.00;91.40
9939;DHT22;5008;50.656;7.188;2023-02-28T10:46:01;8.10;94.90
9939;DHT22;5008;50.656;7.188;2023-02-28T10:48:33;8.40;90.40
9939;DHT22;5008;50.656;7.188;2023-02-28T10:51:03;8.30;93.90
9939;DHT22;5008;50.656;7.188;2023-02-28T10:53:33;8.50;94.20
9939;DHT22;5008;50.656;7.188;2023-02-28T10:56:03;8.50;90.30
9939;DHT22;5008;50.656;7.188;2023-02-28T10:58:34;8.50;90.00
9939;DHT22;5008;50.656;7.188;2023-02-28T11:01:13;8.00;87.00
9939;DHT22;5008;50.656;7.188;2023-02-28T11:03:40;8.20;93.20
9939;DHT22;5008;50.656;7.188;2023-02-28T11:06:14;7.90;87.90
9939;DHT22;5008;50.656;7.188;2023-02-28T11:08:47;8.40;96.10
9939;DHT22;5008;50.656;7.188;2023-02-28T11:11:14;8.30;89.70
9939;DHT22;5008;50.656;7.188;2023-02-28T11:13:45;7.80;84.10
9939;DHT22;5008;50.656;7.188;2023-02-28T11:16:14;7.40;84.90
9939;DHT22;5008;50.656;7.188;2023-02-28T11:18:46;7.10;84.80
9939;DHT22;5008;50.656;7.188;2023-02-28T11:21:21;7.00;84.40
9939;DHT22;5008;50.656;7.188;2023-02-28T11:23:51;6.80;85.70
9939;DHT22;5008;50.656;7.188;2023-02-28T11:26:40;6.50;85.40
9939;DHT22;5008;50.656;7.188;2023-02-28T11:29:16;6.60;86.70
9939;DHT22;5008;50.656;7.188;2023-02-28T11:32:01;6.60;84.70
9939;DHT22;5008;50.656;7.188;2023-02-28T11:34:29;6.70;85.70
9939;DHT22;5008;50.656;7.188;2023-02-28T11:36:59;6.70;85.50
9939;DHT22;5008;50.656;7.188;2023-02-28T11:39:26;6.70;86.80
9939;DHT22;5008;50.656;7.188;2023-02-28T11:42:09;6.80;84.40
9939;DHT22;5008;50.656;7.188;2023-02-28T11:45:02;7.00;85.30
9939;DHT22;5008;50.656;7.188;2023-02-28T11:47:44;7.00;85.10
9939;DHT22;5008;50.656;7.188;2023-02-28T11:50:31;7.10;88.00
9939;DHT22;5008;50.656;7.188;2023-02-28T11:53:12;7.00;85.50
9939;DHT22;5008;50.656;7.188;2023-02-28T11:55:45;7.50;84.60
9939;DHT22;5008;50.656;7.188;2023-02-28T11:58:37;8.10;84.80
9939;DHT22;5008;50.656;7.188;2023-02-28T12:01:19;8.70;82.50
9939;DHT22;5008;50.656;7.188;2023-02-28T12:03:56;8.90;81.00
9939;DHT22;5008;50.656;7.188;2023-02-28T12:06:29;9.70;80.30
9939;DHT22;5008;50.656;7.188;2023-02-28T12:09:17;10.40;76.40
9939;DHT22;5008;50.656;7.188;2023-02-28T12:11:56;10.40;73.80
9939;DHT22;5008;50.656;7.188;2023-02-28T12:14:55;10.60;74.30
9939;DHT22;5008;50.656;7.188;2023-02-28T12:17:43;9.50;75.20
9939;DHT22;5008;50.656;7.188;2023-02-28T12:20:20;9.20;76.60
9939;DHT22;5008;50.656;7.188;2023-02-28T12:22:58;9.30;77.10
9939;DHT22;5008;50.656;7.188;2023-02-28T12:25:50;9.50;75.20
9939;DHT22;5008;50.656;7.188;2023-02-28T12:28:25;9.90;75.80
9939;DHT22;5008;50.656;7.188;2023-02-28T12:30:58;10.60;75.00
9939;DHT22;5008;50.656;7.188;2023-02-28T12:33:32;11.90;70.70
9939;DHT22;5008;50.656;7.188;2023-02-28T12:36:04;12.60;72.00
9939;DHT22;5008;50.656;7.188;2023-02-28T12:38:59;13.10;68.90
9939;DHT22;5008;50.656;7.188;2023-02-28T12:41:34;12.10;68.60
9939;DHT22;5008;50.656;7.188;2023-02-28T12:44:07;12.20;67.30
9939;DHT22;5008;50.656;7.188;2023-02-28T12:46:38;12.20;67.80
9939;DHT22;5008;50.656;7.188;2023-02-28T12:49:10;11.60;66.20
9939;DHT22;5008;50.656;7.188;2023-02-28T12:51:39;10.80;68.20
9939;DHT22;5008;50.656;7.188;2023-02-28T12:54:13;10.30;66.80
9939;DHT22;5008;50.656;7.188;2023-02-28T12:56:48;9.90;69.20
9939;DHT22;5008;50.656;7.188;2023-02-28T12:59:23;9.90;70.50
9939;DHT22;5008;50.656;7.188;2023-02-28T13:02:14;9.70;70.50
9939;DHT22;5008;50.656;7.188;2023-02-28T13:05:15;10.30;72.60
9939;DHT22;5008;50.656;7.188;2023-02-28T13:08:08;11.40;69.50
9939;DHT22;5008;50.656;7.188;2023-02-28T13:10:41;12.80;69.10
9939;DHT22;5008;50.656;7.188;2023-02-28T13:13:16;13.30;63.50
9939;DHT22;5008;50.656;7.188;2023-02-28T13:16:00;13.50;63.30
9939;DHT22;5008;50.656;7.188;2023-02-28T13:18:31;13.70;75.60
9939;DHT22;5008;50.656;7.188;2023-02-28T13:20:58;14.50;80.90
9939;DHT22;5008;50.656;7.188;2023-02-28T13:23:59;13.70;64.20
9939;DHT22;5008;50.656;7.188;2023-02-28T13:29:32;13.20;63.10
9939;DHT22;5008;50.656;7.188;2023-02-28T13:35:35;13.40;62.10
9939;DHT22;5008;50.656;7.188;2023-02-28T13:41:45;14.90;62.10
9939;DHT22;5008;50.656;7.188;2023-02-28T13:44:17;14.00;60.40
9939;DHT22;5008;50.656;7.188;2023-02-28T13:47:23;12.70;59.60
9939;DHT22;5008;50.656;7.188;2023-02-28T13:49:53;11.40;63.60
9939;DHT22;5008;50.656;7.188;2023-02-28T13:52:22;11.60;62.70
9939;DHT22;5008;50.656;7.188;2023-02-28T13:57:57;13.90;61.40
9939;DHT22;5008;50.656;7.188;2023-02-28T14:00:37;15.20;58.70
9939;DHT22;5008;50.656;7.188;2023-02-28T14:03:25;15.80;57.40
9939;DHT22;5008;50.656;7.188;2023-02-28T14:06:25;17.20;56.40
9939;DHT22;5008;50.656;7.188;2023-02-28T14:08:57;16.60;54.50
9939;DHT22;5008;50.656;7.188;2023-02-28T14:11:30;16.80;53.80
9939;DHT22;5008;50.656;7.188;2023-02-28T14:13:58;16.50;53.60
9939;DHT22;5008;50.656;7.188;2023-02-28T14:16:26;16.60;53.40
9939;DHT22;5008;50.656;7.188;2023-02-28T14:19:00;16.80;56.40
9939;DHT22;5008;50.656;7.188;2023-02-28T14:21:31;17.80;52.30
9939;DHT22;5008;50.656;7.188;2023-02-28T14:24:21;17.80;52.00
9939;DHT22;5008;50.656;7.188;2023-02-28T14:27:24;17.90;51.80
9939;DHT22;5008;50.656;7.188;2023-02-28T14:30:18;17.70;51.80
9939;DHT22;5008;50.656;7.188;2023-02-28T14:33:01;17.70;50.60
9939;DHT22;5008;50.656;7.188;2023-02-28T14:38:33;17.70;50.40
9939;DHT22;5008;50.656;7.188;2023-02-28T14:41:06;17.20;50.00
9939;DHT22;5008;50.656;7.188;2023-02-28T14:43:48;16.90;48.90
9939;DHT22;5008;50.656;7.188;2023-02-28T14:46:16;17.40;48.50
9939;DHT22;5008;50.656;7.188;2023-02-28T14:48:47;17.80;48.60
9939;DHT22;5008;50.656;7.188;2023-02-28T14:51:23;18.30;47.20
9939;DHT22;5008;50.656;7.188;2023-02-28T14:53:57;18.80;48.70
9939;DHT22;5008;50.656;7.188;2023-02-28T14:56:27;19.80;45.80
9939;DHT22;5008;50.656;7.188;2023-02-28T14:58:57;19.10;45.30
9939;DHT22;5008;50.656;7.188;2023-02-28T15:01:25;18.40;46.10
9939;DHT22;5008;50.656;7.188;2023-02-28T15:04:00;17.30;46.00
9939;DHT22;5008;50.656;7.188;2023-02-28T15:06:30;14.50;46.10
9939;DHT22;5008;50.656;7.188;2023-02-28T15:09:13;13.40;50.10
9939;DHT22;5008;50.656;7.188;2023-02-28T15:11:41;12.80;50.20
9939;DHT22;5008;50.656;7.188;2023-02-28T15:14:15;11.70;51.30
9939;DHT22;5008;50.656;7.188;2023-02-28T15:16:44;10.80;51.70
9939;DHT22;5008;50.656;7.188;2023-02-28T15:19:14;10.80;51.60
9939;DHT22;5008;50.656;7.188;2023-02-28T15:21:49;10.70;51.80
9939;DHT22;5008;50.656;7.188;2023-02-28T15:24:19;10.60;51.90
9939;DHT22;5008;50.656;7.188;2023-02-28T15:27:04;10.20;52.60
9939;DHT22;5008;50.656;7.188;2023-02-28T15:29:45;9.60;56.80
9939;DHT22;5008;50.656;7.188;2023-02-28T15:32:26;9.60;55.70
9939;DHT22;5008;50.656;7.188;2023-02-28T15:34:54;9.30;56.50
9939;DHT22;5008;50.656;7.188;2023-02-28T15:37:28;9.30;55.90
9939;DHT22;5008;50.656;7.188;2023-02-28T15:40:03;9.30;55.60
9939;DHT22;5008;50.656;7.188;2023-02-28T15:42:30;9.20;55.40
9939;DHT22;5008;50.656;7.188;2023-02-28T15:44:58;8.90;56.90
9939;DHT22;5008;50.656;7.188;2023-02-28T15:47:27;8.60;58.20
9939;DHT22;5008;50.656;7.188;2023-02-28T15:49:56;8.50;58.40
9939;DHT22;5008;50.656;7.188;2023-02-28T15:52:29;8.30;57.90
9939;DHT22;5008;50.656;7.188;2023-02-28T15:55:08;8.30;58.20
9939;DHT22;5008;50.656;7.188;2023-02-28T15:57:39;8.20;58.80
9939;DHT22;5008;50.656;7.188;2023-02-28T16:00:12;8.30;58.50
9939;DHT22;5008;50.656;7.188;2023-02-28T16:02:39;8.30;58.90
9939;DHT22;5008;50.656;7.188;2023-02-28T16:05:22;8.20;59.30
9939;DHT22;5008;50.656;7.188;2023-02-28T16:07:55;8.10;58.70
9939;DHT22;5008;50.656;7.188;2023-02-28T16:10:24;8.10;59.20
9939;DHT22;5008;50.656;7.188;2023-02-28T16:12:53;8.10;59.40
9939;DHT22;5008;50.656;7.188;2023-02-28T16:15:23;8.10;59.30
9939;DHT22;5008;50.656;7.188;2023-02-28T16:17:52;8.10;59.90
9939;DHT22;5008;50.656;7.188;2023-02-28T16:20:21;8.00;59.90
9939;DHT22;5008;50.656;7.188;2023-02-28T16:22:48;7.90;61.00
9939;DHT22;5008;50.656;7.188;2023-02-28T16:25:19;7.90;61.40
9939;DHT22;5008;50.656;7.188;2023-02-28T16:27:48;7.80;60.80
9939;DHT22;5008;50.656;7.188;2023-02-28T16:30:20;7.70;60.30
9939;DHT22;5008;50.656;7.188;2023-02-28T16:32:48;7.70;61.00
9939;DHT22;5008;50.656;7.188;2023-02-28T16:35:15;7.50;61.20
9939;DHT22;5008;50.656;7.188;2023-02-28T16:37:43;7.40;62.50
9939;DHT22;5008;50.656;7.188;2023-02-28T16:40:14;7.40;62.60
9939;DHT22;5008;50.656;7.188;2023-02-28T16:42:43;7.30;62.20
9939;DHT22;5008;50.656;7.188;2023-02-28T16:45:16;7.20;62.00
9939;DHT22;5008;50.656;7.188;2023-02-28T16:47:45;7.10;62.60
9939;DHT22;5008;50.656;7.188;2023-02-28T16:50:17;7.10;63.60
9939;DHT22;5008;50.656;7.188;2023-02-28T16:52:44;7.00;64.40
9939;DHT22;5008;50.656;7.188;2023-02-28T16:55:11;6.90;65.20
9939;DHT22;5008;50.656;7.188;2023-02-28T16:58:01;6.80;65.70
9939;DHT22;5008;50.656;7.188;2023-02-28T17:00:30;6.70;66.10
9939;DHT22;5008;50.656;7.188;2023-02-28T17:02:58;6.60;66.90
9939;DHT22;5008;50.656;7.188;2023-02-28T17:05:25;6.50;68.50
9939;DHT22;5008;50.656;7.188;2023-02-28T17:07:54;6.30;69.10
9939;DHT22;5008;50.656;7.188;2023-02-28T17:10:24;6.20;69.30
9939;DHT22;5008;50.656;7.188;2023-02-28T17:12:51;6.00;70.10
9939;DHT22;5008;50.656;7.188;2023-02-28T17:15:20;5.90;69.50
9939;DHT22;5008;50.656;7.188;2023-02-28T17:17:47;5.80;71.40
9939;DHT22;5008;50.656;7.188;2023-02-28T17:20:16;5.70;72.10
9939;DHT22;5008;50.656;7.188;2023-02-28T17:22:42;5.60;73.20
9939;DHT22;5008;50.656;7.188;2023-02-28T17:25:10;5.50;73.50
9939;DHT22;5008;50.656;7.188;2023-02-28T17:27:37;5.30;74.40
9939;DHT22;5008;50.656;7.188;2023-02-28T17:30:13;5.20;75.80
9939;DHT22;5008;50.656;7.188;2023-02-28T17:32:42;5.10;76.20
9939;DHT22;5008;50.656;7.188;2023-02-28T17:35:09;4.90;76.40
9939;DHT22;5008;50.656;7.188;2023-02-28T17:37:36;4.80;77.40
9939;DHT22;5008;50.656;7.188;2023-02-28T17:40:03;4.70;77.20
9939;DHT22;5008;50.656;7.188;2023-02-28T17:42:30;4.60;78.70
9939;DHT22;5008;50.656;7.188;2023-02-28T17:44:58;4.50;80.40
9939;DHT22;5008;50.656;7.188;2023-02-28T17:47:24;4.40;80.30
9939;DHT22;5008;50.656;7.188;2023-02-28T17:49:53;4.30;80.60
9939;DHT22;5008;50.656;7.188;2023-02-28T17:52:20;4.20;80.80
9939;DHT22;5008;50.656;7.188;2023-02-28T17:54:47;4.10;80.70
9939;DHT22;5008;50.656;7.188;2023-02-28T17:57:15;4.10;81.60
9939;DHT22;5008;50.656;7.188;2023-02-28T17:59:42;4.00;82.00
9939;DHT22;5008;50.656;7.188;2023-02-28T18:02:12;3.90;82.80
9939;DHT22;5008;50.656;7.188;2023-02-28T18:04:39;3.80;84.10
9939;DHT22;5008;50.656;7.188;2023-02-28T18:07:09;3.70;84.40
9939;DHT22;5008;50.656;7.188;2023-02-28T18:09:37;3.80;84.40
9939;DHT22;5008;50.656;7.188;2023-02-28T18:12:05;3.70;85.70
9939;DHT22;5008;50.656;7.188;2023-02-28T18:14:31;3.60;86.30
9939;DHT22;5008;50.656;7.188;2023-02-28T18:16:58;3.50;87.70
9939;DHT22;5008;50.656;7.188;2023-02-28T18:19:25;3.40;89.70
9939;DHT22;5008;50.656;7.188;2023-02-28T18:21:53;3.30;89.90
9939;DHT22;5008;50.656;7.188;2023-02-28T18:24:24;3.20;90.00
9939;DHT22;5008;50.656;7.188;2023-02-28T18:26:51;3.20;90.50
9939;DHT22;5008;50.656;7.188;2023-02-28T18:29:20;3.10;90.90
9939;DHT22;5008;50.656;7.188;2023-02-28T18:31:47;3.10;91.30
9939;DHT22;5008;50.656;7.188;2023-02-28T18:34:15;3.00;91.80
9939;DHT22;5008;50.656;7.188;2023-02-28T18:36:41;3.00;91.70
9939;DHT22;5008;50.656;7.188;2023-02-28T18:39:11;2.90;92.20
9939;DHT22;5008;50.656;7.188;2023-02-28T18:41:39;2.90;92.70
9939;DHT22;5008;50.656;7.188;2023-02-28T18:44:06;2.90;93.10
9939;DHT22;5008;50.656;7.188;2023-02-28T18:46:33;2.80;93.50
9939;DHT22;5008;50.656;7.188;2023-02-28T18:49:00;2.70;93.80
9939;DHT22;5008;50.656;7.188;2023-02-28T18:51:29;2.60;93.90
9939;DHT22;5008;50.656;7.188;2023-02-28T18:53:55;2.60;94.10
9939;DHT22;5008;50.656;7.188;2023-02-28T18:56:23;2.50;94.40
9939;DHT22;5008;50.656;7.188;2023-02-28T18:58:52;2.50;94.90
9939;DHT22;5008;50.656;7.188;2023-02-28T19:01:20;2.50;95.30
9939;DHT22;5008;50.656;7.188;2023-02-28T19:03:48;2.40;95.90
9939;DHT22;5008;50.656;7.188;2023-02-28T19:06:17;2.40;96.20
9939;DHT22;5008;50.656;7.188;2023-02-28T19:08:44;2.40;96.60
9939;DHT22;5008;50.656;7.188;2023-02-28T19:11:16;2.30;96.80
9939;DHT22;5008;50.656;7.188;2023-02-28T19:13:43;2.20;97.10
9939;DHT22;5008;50.656;7.188;2023-02-28T19:16:14;2.20;97.30
9939;DHT22;5008;50.656;7.188;2023-02-28T19:18:41;2.10;97.50
9939;DHT22;5008;50.656;7.188;2023-02-28T19:21:09;2.00;97.90
9939;DHT22;5008;50.656;7.188;2023-02-28T19:23:37;1.90;98.20
9939;DHT22;5008;50.656;7.188;2023-02-28T19:26:05;1.90;98.80
9939;DHT22;5008;50.656;7.188;2023-02-28T19:28:32;1.90;99.20
9939;DHT22;5008;50.656;7.188;2023-02-28T19:30:58;1.90;99.40
9939;DHT22;5008;50.656;7.188;2023-02-28T19:33:26;1.90;99.50
9939;DHT22;5008;50.656;7.188;2023-02-28T19:35:54;1.80;99.90
9939;DHT22;5008;50.656;7.188;2023-02-28T19:38:21;1.70;99.90
9939;DHT22;5008;50.656;7.188;2023-02-28T19:40:48;1.70;99.90
9939;DHT22;5008;50.656;7.188;2023-02-28T19:43:35;1.70;99.90
9939;DHT22;5008;50.656;7.188;2023-02-28T19:46:02;1.60;99.90
9939;DHT22;5008;50.656;7.188;2023-02-28T19:48:30;1.60;99.90
9939;DHT22;5008;50.656;7.188;2023-02-28T19:50:57;1.70;99.90
9939;DHT22;5008;50.656;7.188;2023-02-28T19:53:25;1.60;99.90
9939;DHT22;5008;50.656;7.188;2023-02-28T19:55:52;1.50;99.90
9939;DHT22;5008;50.656;7.188;2023-02-28T19:58:21;1.50;99.90
9939;DHT22;5008;50.656;7.188;2023-02-28T20:00:48;1.40;99.90
9939;DHT22;5008;50.656;7.188;2023-02-28T20:03:17;1.40;99.90
9939;DHT22;5008;50.656;7.188;2023-02-28T20:05:46;1.30;99.90
9939;DHT22;5008;50.656;7.188;2023-02-28T20:08:13;1.30;99.90
9939;DHT22;5008;50.656;7.188;2023-02-28T20:10:40;1.30;99.90
9939;DHT22;5008;50.656;7.188;2023-02-28T20:13:07;1.30;99.90
9939;DHT22;5008;50.656;7.188;2023-02-28T20:15:36;1.30;99.90
9939;DHT22;5008;50.656;7.188;2023-02-28T20:18:02;1.30;99.90
9939;DHT22;5008;50.656;7.188;2023-02-28T20:20:29;1.20;99.90
9939;DHT22;5008;50.656;7.188;2023-02-28T20:23:02;1.20;99.90
9939;DHT22;5008;50.656;7.188;2023-02-28T20:25:31;1.20;99.90
9939;DHT22;5008;50.656;7.188;2023-02-28T20:28:12;1.10;99.90
9939;DHT22;5008;50.656;7.188;2023-02-28T20:30:39;1.10;99.90
9939;DHT22;5008;50.656;7.188;2023-02-28T20:33:07;1.10;99.90
9939;DHT22;5008;50.656;7.188;2023-02-28T20:35:34;1.10;99.90
9939;DHT22;5008;50.656;7.188;2023-02-28T20:38:02;1.00;99.90
9939;DHT22;5008;50.656;7.188;2023-02-28T20:40:36;1.00;99.90
9939;DHT22;5008;50.656;7.188;2023-02-28T20:43:03;1.00;99.90
9939;DHT22;5008;50.656;7.188;2023-02-28T20:45:29;1.00;99.90
9939;DHT22;5008;50.656;7.188;2023-02-28T20:47:56;0.90;99.90
9939;DHT22;5008;50.656;7.188;2023-02-28T20:50:23;0.90;99.90
9939;DHT22;5008;50.656;7.188;2023-02-28T20:52:50;0.90;99.90
9939;DHT22;5008;50.656;7.188;2023-02-28T20:55:19;0.90;99.90
9939;DHT22;5008;50.656;7.188;2023-02-28T20:57:46;0.90;99.90
9939;DHT22;5008;50.656;7.188;2023-02-28T21:00:14;0.80;99.90
9939;DHT22;5008;50.656;7.188;2023-02-28T21:02:45;0.80;99.90
9939;DHT22;5008;50.656;7.188;2023-02-28T21:05:11;0.80;99.90
9939;DHT22;5008;50.656;7.188;2023-02-28T21:07:38;0.80;99.90
9939;DHT22;5008;50.656;7.188;2023-02-28T21:10:06;0.80;99.90
9939;DHT22;5008;50.656;7.188;2023-02-28T21:12:35;0.80;99.90
9939;DHT22;5008;50.656;7.188;2023-02-28T21:15:02;0.80;99.90
9939;DHT22;5008;50.656;7.188;2023-02-28T21:17:29;0.70;99.90
9939;DHT22;5008;50.656;7.188;2023-02-28T21:19:56;0.70;99.90
9939;DHT22;5008;50.656;7.188;2023-02-28T21:22:23;0.60;99.90
9939;DHT22;5008;50.656;7.188;2023-02-28T21:24:50;0.60;99.90
9939;DHT22;5008;50.656;7.188;2023-02-28T21:27:17;0.60;99.90
9939;DHT22;5008;50.656;7.188;2023-02-28T21:29:45;0.50;99.90
9939;DHT22;5008;50.656;7.188;2023-02-28T21:32:12;0.60;99.90
9939;DHT22;5008;50.656;7.188;2023-02-28T21:34:39;0.50;99.90
9939;DHT22;5008;50.656;7.188;2023-02-28T21:37:06;0.50;99.90
9939;DHT22;5008;50.656;7.188;2023-02-28T21:39:32;0.50;99.90
9939;DHT22;5008;50.656;7.188;2023-02-28T21:42:00;0.50;99.90
9939;DHT22;5008;50.656;7.188;2023-02-28T21:44:29;0.50;99.90
9939;DHT22;5008;50.656;7.188;2023-02-28T21:46:58;0.40;99.90
9939;DHT22;5008;50.656;7.188;2023-02-28T21:49:27;0.40;99.90
9939;DHT22;5008;50.656;7.188;2023-02-28T21:51:54;0.40;99.90
9939;DHT22;5008;50.656;7.188;2023-02-28T21:54:21;0.40;99.90
9939;DHT22;5008;50.656;7.188;2023-02-28T21:56:48;0.40;99.90
9939;DHT22;5008;50.656;7.188;2023-02-28T21:59:16;0.30;99.90
